sensor_id;sensor_type;location;lat;lon;timestamp;P1;durP1;ratioP1;P2;durP2;ratioP2
14584;SDS011;7379;51.506;11.876;2022-10-03T00:04:07;5.93;;;2.58;;
14584;SDS011;7379;51.506;11.876;2022-10-03T00:06:47;6.30;;;2.40;;
14584;SDS011;7379;51.506;11.876;2022-10-03T00:09:28;7.88;;;2.60;;
14584;SDS011;7379;51.506;11.876;2022-10-03T00:12:12;6.75;;;2.60;;
14584;SDS011;7379;51.506;11.876;2022-10-03T00:14:45;5.50;;;2.28;;
14584;SDS011;7379;51.506;11.876;2022-10-03T00:17:20;6.45;;;2.55;;
14584;SDS011;7379;51.506;11.876;2022-10-03T00:19:56;6.97;;;2.63;;
14584;SDS011;7379;51.506;11.876;2022-10-03T00:22:35;5.10;;;2.20;;
14584;SDS011;7379;51.506;11.876;2022-10-03T00:25:13;4.97;;;2.63;;
14584;SDS011;7379;51.506;11.876;2022-10-03T00:27:53;5.00;;;2.50;;
14584;SDS011;7379;51.506;11.876;2022-10-03T00:30:39;7.05;;;2.85;;
14584;SDS011;7379;51.506;11.876;2022-10-03T00:33:16;5.47;;;2.55;;
14584;SDS011;7379;51.506;11.876;2022-10-03T00:35:58;6.97;;;2.50;;
14584;SDS011;7379;51.506;11.876;2022-10-03T00:38:46;4.47;;;2.10;;
14584;SDS011;7379;51.506;11.876;2022-10-03T00:41:31;5.95;;;2.63;;
14584;SDS011;7379;51.506;11.876;2022-10-03T00:47:39;6.15;;;2.72;;
14584;SDS011;7379;51.506;11.876;2022-10-03T00:50:33;4.43;;;2.47;;
14584;SDS011;7379;51.506;11.876;2022-10-03T00:53:22;5.78;;;2.25;;
14584;SDS011;7379;51.506;11.876;2022-10-03T00:56:09;5.75;;;2.58;;
14584;SDS011;7379;51.506;11.876;2022-10-03T00:58:51;8.57;;;2.63;;
14584;SDS011;7379;51.506;11.876;2022-10-03T01:01:32;4.95;;;2.58;;
14584;SDS011;7379;51.506;11.876;2022-10-03T01:04:08;5.35;;;2.33;;
14584;SDS011;7379;51.506;11.876;2022-10-03T01:06:51;3.38;;;2.10;;
14584;SDS011;7379;51.506;11.876;2022-10-03T01:09:32;6.22;;;2.63;;
14584;SDS011;7379;51.506;11.876;2022-10-03T01:12:11;4.57;;;2.30;;
14584;SDS011;7379;51.506;11.876;2022-10-03T01:14:51;7.18;;;2.80;;
14584;SDS011;7379;51.506;11.876;2022-10-03T01:17:30;6.22;;;2.25;;
14584;SDS011;7379;51.506;11.876;2022-10-03T01:20:13;7.55;;;2.60;;
14584;SDS011;7379;51.506;11.876;2022-10-03T01:26:02;7.28;;;2.42;;
14584;SDS011;7379;51.506;11.876;2022-10-03T01:28:41;6.82;;;2.78;;
14584;SDS011;7379;51.506;11.876;2022-10-03T01:31:32;6.78;;;2.47;;
14584;SDS011;7379;51.506;11.876;2022-10-03T01:34:06;5.18;;;2.40;;
14584;SDS011;7379;51.506;11.876;2022-10-03T01:36:38;5.00;;;2.40;;
14584;SDS011;7379;51.506;11.876;2022-10-03T01:39:14;4.13;;;2.53;;
14584;SDS011;7379;51.506;11.876;2022-10-03T01:41:49;4.97;;;2.45;;
14584;SDS011;7379;51.506;11.876;2022-10-03T01:44:25;4.35;;;2.20;;
14584;SDS011;7379;51.506;11.876;2022-10-03T01:46:57;6.55;;;2.60;;
14584;SDS011;7379;51.506;11.876;2022-10-03T01:49:40;6.82;;;2.40;;
14584;SDS011;7379;51.506;11.876;2022-10-03T01:52:14;4.88;;;2.33;;
14584;SDS011;7379;51.506;11.876;2022-10-03T01:54:51;4.72;;;2.17;;
14584;SDS011;7379;51.506;11.876;2022-10-03T01:57:28;6.07;;;2.40;;
14584;SDS011;7379;51.506;11.876;2022-10-03T02:00:03;5.18;;;2.35;;
14584;SDS011;7379;51.506;11.876;2022-10-03T02:02:35;5.25;;;2.45;;
14584;SDS011;7379;51.506;11.876;2022-10-03T02:05:10;4.53;;;2.50;;
14584;SDS011;7379;51.506;11.876;2022-10-03T02:07:44;5.53;;;2.50;;
14584;SDS011;7379;51.506;11.876;2022-10-03T02:10:21;4.40;;;2.20;;
14584;SDS011;7379;51.506;11.876;2022-10-03T02:12:57;4.95;;;2.30;;
14584;SDS011;7379;51.506;11.876;2022-10-03T02:15:39;4.13;;;2.08;;
14584;SDS011;7379;51.506;11.876;2022-10-03T02:18:20;6.07;;;2.60;;
14584;SDS011;7379;51.506;11.876;2022-10-03T02:20:56;5.32;;;2.58;;
14584;SDS011;7379;51.506;11.876;2022-10-03T02:23:37;5.57;;;2.38;;
14584;SDS011;7379;51.506;11.876;2022-10-03T02:26:19;5.55;;;2.50;;
14584;SDS011;7379;51.506;11.876;2022-10-03T02:29:20;8.13;;;2.58;;
14584;SDS011;7379;51.506;11.876;2022-10-03T02:35:08;7.38;;;2.60;;
14584;SDS011;7379;51.506;11.876;2022-10-03T02:37:54;4.82;;;2.22;;
14584;SDS011;7379;51.506;11.876;2022-10-03T02:43:54;4.57;;;2.25;;
14584;SDS011;7379;51.506;11.876;2022-10-03T02:46:44;7.55;;;2.33;;
14584;SDS011;7379;51.506;11.876;2022-10-03T02:49:49;5.00;;;2.30;;
14584;SDS011;7379;51.506;11.876;2022-10-03T02:52:51;7.60;;;2.50;;
14584;SDS011;7379;51.506;11.876;2022-10-03T03:02:01;5.50;;;2.22;;
14584;SDS011;7379;51.506;11.876;2022-10-03T03:05:11;5.75;;;2.25;;
14584;SDS011;7379;51.506;11.876;2022-10-03T03:11:15;5.18;;;2.42;;
14584;SDS011;7379;51.506;11.876;2022-10-03T03:17:19;6.30;;;2.47;;
14584;SDS011;7379;51.506;11.876;2022-10-03T03:19:58;4.93;;;2.13;;
14584;SDS011;7379;51.506;11.876;2022-10-03T03:22:43;6.63;;;2.35;;
14584;SDS011;7379;51.506;11.876;2022-10-03T03:25:28;7.68;;;2.75;;
14584;SDS011;7379;51.506;11.876;2022-10-03T03:28:12;4.97;;;2.50;;
14584;SDS011;7379;51.506;11.876;2022-10-03T03:30:54;8.25;;;2.65;;
14584;SDS011;7379;51.506;11.876;2022-10-03T03:33:31;5.35;;;2.25;;
14584;SDS011;7379;51.506;11.876;2022-10-03T03:36:10;6.68;;;2.47;;
14584;SDS011;7379;51.506;11.876;2022-10-03T03:38:45;4.53;;;2.35;;
14584;SDS011;7379;51.506;11.876;2022-10-03T03:41:35;6.55;;;2.60;;
14584;SDS011;7379;51.506;11.876;2022-10-03T03:44:19;4.72;;;2.15;;
14584;SDS011;7379;51.506;11.876;2022-10-03T03:47:07;6.40;;;2.20;;
14584;SDS011;7379;51.506;11.876;2022-10-03T03:49:50;7.65;;;2.70;;
14584;SDS011;7379;51.506;11.876;2022-10-03T03:52:39;7.80;;;2.28;;
14584;SDS011;7379;51.506;11.876;2022-10-03T03:55:25;5.97;;;2.47;;
14584;SDS011;7379;51.506;11.876;2022-10-03T03:58:05;6.93;;;2.60;;
14584;SDS011;7379;51.506;11.876;2022-10-03T04:00:47;6.10;;;2.40;;
14584;SDS011;7379;51.506;11.876;2022-10-03T04:03:30;6.18;;;2.40;;
14584;SDS011;7379;51.506;11.876;2022-10-03T04:06:12;6.75;;;2.38;;
14584;SDS011;7379;51.506;11.876;2022-10-03T04:11:47;5.25;;;2.70;;
14584;SDS011;7379;51.506;11.876;2022-10-03T04:14:29;8.23;;;2.42;;
14584;SDS011;7379;51.506;11.876;2022-10-03T04:17:16;7.43;;;2.78;;
14584;SDS011;7379;51.506;11.876;2022-10-03T04:20:14;7.10;;;2.47;;
14584;SDS011;7379;51.506;11.876;2022-10-03T04:23:03;6.28;;;2.60;;
14584;SDS011;7379;51.506;11.876;2022-10-03T04:25:45;8.35;;;2.45;;
14584;SDS011;7379;51.506;11.876;2022-10-03T04:28:42;6.70;;;2.53;;
14584;SDS011;7379;51.506;11.876;2022-10-03T04:31:44;6.25;;;2.85;;
14584;SDS011;7379;51.506;11.876;2022-10-03T04:34:19;5.65;;;2.60;;
14584;SDS011;7379;51.506;11.876;2022-10-03T04:37:01;6.78;;;2.70;;
14584;SDS011;7379;51.506;11.876;2022-10-03T04:39:36;6.38;;;2.88;;
14584;SDS011;7379;51.506;11.876;2022-10-03T04:42:14;6.90;;;2.97;;
14584;SDS011;7379;51.506;11.876;2022-10-03T04:44:56;7.75;;;3.10;;
14584;SDS011;7379;51.506;11.876;2022-10-03T04:47:33;7.05;;;2.90;;
14584;SDS011;7379;51.506;11.876;2022-10-03T04:50:12;7.18;;;2.88;;
14584;SDS011;7379;51.506;11.876;2022-10-03T04:52:50;6.20;;;2.70;;
14584;SDS011;7379;51.506;11.876;2022-10-03T04:55:29;6.18;;;3.03;;
14584;SDS011;7379;51.506;11.876;2022-10-03T04:58:06;7.53;;;2.85;;
14584;SDS011;7379;51.506;11.876;2022-10-03T05:00:49;6.43;;;2.90;;
14584;SDS011;7379;51.506;11.876;2022-10-03T05:03:30;7.15;;;3.17;;
14584;SDS011;7379;51.506;11.876;2022-10-03T05:06:08;5.60;;;2.55;;
14584;SDS011;7379;51.506;11.876;2022-10-03T05:08:58;4.78;;;2.90;;
14584;SDS011;7379;51.506;11.876;2022-10-03T05:11:38;4.72;;;2.53;;
14584;SDS011;7379;51.506;11.876;2022-10-03T05:14:16;4.82;;;2.53;;
14584;SDS011;7379;51.506;11.876;2022-10-03T05:16:53;6.32;;;2.80;;
14584;SDS011;7379;51.506;11.876;2022-10-03T05:19:36;6.30;;;2.75;;
14584;SDS011;7379;51.506;11.876;2022-10-03T05:22:15;3.47;;;2.50;;
14584;SDS011;7379;51.506;11.876;2022-10-03T05:24:53;3.80;;;2.28;;
14584;SDS011;7379;51.506;11.876;2022-10-03T05:27:28;7.50;;;3.00;;
14584;SDS011;7379;51.506;11.876;2022-10-03T05:30:02;5.78;;;2.75;;
14584;SDS011;7379;51.506;11.876;2022-10-03T05:32:36;5.72;;;3.00;;
14584;SDS011;7379;51.506;11.876;2022-10-03T05:41:17;7.43;;;2.75;;
14584;SDS011;7379;51.506;11.876;2022-10-03T05:43:50;4.22;;;2.50;;
14584;SDS011;7379;51.506;11.876;2022-10-03T05:46:31;7.38;;;2.72;;
14584;SDS011;7379;51.506;11.876;2022-10-03T05:49:16;6.80;;;2.90;;
14584;SDS011;7379;51.506;11.876;2022-10-03T05:51:57;5.25;;;2.60;;
14584;SDS011;7379;51.506;11.876;2022-10-03T05:57:57;7.68;;;2.63;;
14584;SDS011;7379;51.506;11.876;2022-10-03T06:00:47;6.30;;;2.80;;
14584;SDS011;7379;51.506;11.876;2022-10-03T06:03:44;6.00;;;2.53;;
14584;SDS011;7379;51.506;11.876;2022-10-03T06:06:45;5.45;;;2.65;;
14584;SDS011;7379;51.506;11.876;2022-10-03T06:09:29;6.20;;;2.50;;
14584;SDS011;7379;51.506;11.876;2022-10-03T06:12:08;4.75;;;2.65;;
14584;SDS011;7379;51.506;11.876;2022-10-03T06:17:56;7.32;;;2.80;;
14584;SDS011;7379;51.506;11.876;2022-10-03T06:26:57;4.43;;;2.40;;
14584;SDS011;7379;51.506;11.876;2022-10-03T06:32:47;5.50;;;2.45;;
14584;SDS011;7379;51.506;11.876;2022-10-03T06:35:46;6.35;;;2.60;;
14584;SDS011;7379;51.506;11.876;2022-10-03T06:38:45;6.50;;;2.60;;
14584;SDS011;7379;51.506;11.876;2022-10-03T06:48:29;7.30;;;2.72;;
14584;SDS011;7379;51.506;11.876;2022-10-03T06:51:19;6.00;;;2.65;;
14584;SDS011;7379;51.506;11.876;2022-10-03T06:54:10;10.10;;;2.70;;
14584;SDS011;7379;51.506;11.876;2022-10-03T06:57:03;5.60;;;2.60;;
14584;SDS011;7379;51.506;11.876;2022-10-03T06:59:47;7.45;;;2.85;;
14584;SDS011;7379;51.506;11.876;2022-10-03T07:11:52;10.10;;;3.30;;
14584;SDS011;7379;51.506;11.876;2022-10-03T07:17:36;10.68;;;3.53;;
14584;SDS011;7379;51.506;11.876;2022-10-03T07:20:34;7.75;;;3.20;;
14584;SDS011;7379;51.506;11.876;2022-10-03T07:29:57;8.55;;;3.10;;
14584;SDS011;7379;51.506;11.876;2022-10-03T07:35:49;8.55;;;3.08;;
14584;SDS011;7379;51.506;11.876;2022-10-03T07:39:03;8.73;;;2.90;;
14584;SDS011;7379;51.506;11.876;2022-10-03T07:41:54;7.70;;;2.88;;
14584;SDS011;7379;51.506;11.876;2022-10-03T07:51:08;9.55;;;3.47;;
14584;SDS011;7379;51.506;11.876;2022-10-03T07:56:58;8.63;;;3.08;;
14584;SDS011;7379;51.506;11.876;2022-10-03T08:00:02;9.70;;;3.38;;
14584;SDS011;7379;51.506;11.876;2022-10-03T08:06:04;8.52;;;3.10;;
14584;SDS011;7379;51.506;11.876;2022-10-03T08:11:56;7.60;;;2.97;;
14584;SDS011;7379;51.506;11.876;2022-10-03T08:14:42;7.32;;;3.15;;
14584;SDS011;7379;51.506;11.876;2022-10-03T08:17:33;7.22;;;3.00;;
14584;SDS011;7379;51.506;11.876;2022-10-03T08:20:39;7.47;;;2.80;;
14584;SDS011;7379;51.506;11.876;2022-10-03T08:23:17;6.53;;;3.08;;
14584;SDS011;7379;51.506;11.876;2022-10-03T08:26:03;11.27;;;3.45;;
14584;SDS011;7379;51.506;11.876;2022-10-03T08:28:51;6.60;;;2.83;;
14584;SDS011;7379;51.506;11.876;2022-10-03T08:31:43;10.27;;;3.00;;
14584;SDS011;7379;51.506;11.876;2022-10-03T08:34:38;6.95;;;2.88;;
14584;SDS011;7379;51.506;11.876;2022-10-03T08:44:04;5.95;;;3.03;;
14584;SDS011;7379;51.506;11.876;2022-10-03T08:47:14;11.93;;;3.30;;
14584;SDS011;7379;51.506;11.876;2022-10-03T08:50:16;6.25;;;3.00;;
14584;SDS011;7379;51.506;11.876;2022-10-03T08:53:32;10.40;;;3.30;;
14584;SDS011;7379;51.506;11.876;2022-10-03T08:56:44;7.55;;;3.08;;
14584;SDS011;7379;51.506;11.876;2022-10-03T08:59:30;6.45;;;3.30;;
14584;SDS011;7379;51.506;11.876;2022-10-03T09:02:28;7.18;;;3.38;;
14584;SDS011;7379;51.506;11.876;2022-10-03T09:05:18;5.70;;;3.35;;
14584;SDS011;7379;51.506;11.876;2022-10-03T09:17:29;9.02;;;3.40;;
14584;SDS011;7379;51.506;11.876;2022-10-03T09:20:16;7.30;;;2.95;;
14584;SDS011;7379;51.506;11.876;2022-10-03T09:23:13;7.55;;;3.47;;
14584;SDS011;7379;51.506;11.876;2022-10-03T09:29:08;5.88;;;3.03;;
14584;SDS011;7379;51.506;11.876;2022-10-03T09:32:05;8.95;;;2.95;;
14584;SDS011;7379;51.506;11.876;2022-10-03T09:35:06;6.57;;;2.80;;
14584;SDS011;7379;51.506;11.876;2022-10-03T09:37:59;7.82;;;2.97;;
14584;SDS011;7379;51.506;11.876;2022-10-03T09:44:18;8.77;;;3.28;;
14584;SDS011;7379;51.506;11.876;2022-10-03T09:53:28;8.25;;;3.15;;
14584;SDS011;7379;51.506;11.876;2022-10-03T09:56:29;11.50;;;3.15;;
14584;SDS011;7379;51.506;11.876;2022-10-03T09:59:21;9.27;;;3.35;;
14584;SDS011;7379;51.506;11.876;2022-10-03T10:02:01;8.63;;;3.38;;
14584;SDS011;7379;51.506;11.876;2022-10-03T10:04:50;5.97;;;2.80;;
14584;SDS011;7379;51.506;11.876;2022-10-03T10:07:34;7.55;;;2.70;;
14584;SDS011;7379;51.506;11.876;2022-10-03T10:10:36;8.75;;;3.13;;
14584;SDS011;7379;51.506;11.876;2022-10-03T10:13:33;8.13;;;3.22;;
14584;SDS011;7379;51.506;11.876;2022-10-03T10:19:22;10.90;;;3.40;;
14584;SDS011;7379;51.506;11.876;2022-10-03T10:22:13;7.75;;;2.97;;
14584;SDS011;7379;51.506;11.876;2022-10-03T10:28:15;8.07;;;2.90;;
14584;SDS011;7379;51.506;11.876;2022-10-03T10:34:14;10.25;;;3.08;;
14584;SDS011;7379;51.506;11.876;2022-10-03T10:37:21;8.18;;;2.38;;
14584;SDS011;7379;51.506;11.876;2022-10-03T10:40:07;8.38;;;2.95;;
14584;SDS011;7379;51.506;11.876;2022-10-03T10:43:07;10.10;;;2.63;;
14584;SDS011;7379;51.506;11.876;2022-10-03T10:49:27;10.25;;;2.63;;
14584;SDS011;7379;51.506;11.876;2022-10-03T10:52:26;7.22;;;2.67;;
14584;SDS011;7379;51.506;11.876;2022-10-03T11:01:30;9.90;;;2.72;;
14584;SDS011;7379;51.506;11.876;2022-10-03T11:04:33;9.07;;;2.63;;
14584;SDS011;7379;51.506;11.876;2022-10-03T11:07:46;7.70;;;2.47;;
14584;SDS011;7379;51.506;11.876;2022-10-03T11:10:44;11.90;;;2.78;;
14584;SDS011;7379;51.506;11.876;2022-10-03T11:19:47;6.68;;;2.15;;
14584;SDS011;7379;51.506;11.876;2022-10-03T11:22:59;9.35;;;2.80;;
14584;SDS011;7379;51.506;11.876;2022-10-03T11:26:03;7.15;;;2.60;;
14584;SDS011;7379;51.506;11.876;2022-10-03T11:32:50;7.00;;;2.53;;
14584;SDS011;7379;51.506;11.876;2022-10-03T11:35:56;8.45;;;2.63;;
14584;SDS011;7379;51.506;11.876;2022-10-03T11:38:38;5.18;;;2.30;;
14584;SDS011;7379;51.506;11.876;2022-10-03T11:41:16;8.80;;;2.65;;
14584;SDS011;7379;51.506;11.876;2022-10-03T11:44:01;7.05;;;2.40;;
14584;SDS011;7379;51.506;11.876;2022-10-03T11:49:59;8.88;;;2.50;;
14584;SDS011;7379;51.506;11.876;2022-10-03T11:52:58;10.95;;;2.28;;
14584;SDS011;7379;51.506;11.876;2022-10-03T11:55:36;8.88;;;2.67;;
14584;SDS011;7379;51.506;11.876;2022-10-03T11:58:12;8.65;;;2.60;;
14584;SDS011;7379;51.506;11.876;2022-10-03T12:00:57;7.30;;;2.25;;
14584;SDS011;7379;51.506;11.876;2022-10-03T12:03:35;7.78;;;2.85;;
14584;SDS011;7379;51.506;11.876;2022-10-03T12:06:12;9.13;;;2.83;;
14584;SDS011;7379;51.506;11.876;2022-10-03T12:09:06;6.05;;;2.50;;
14584;SDS011;7379;51.506;11.876;2022-10-03T12:11:44;8.85;;;2.58;;
14584;SDS011;7379;51.506;11.876;2022-10-03T12:14:23;5.43;;;2.35;;
14584;SDS011;7379;51.506;11.876;2022-10-03T12:16:56;8.70;;;2.65;;
14584;SDS011;7379;51.506;11.876;2022-10-03T12:19:30;7.78;;;2.53;;
14584;SDS011;7379;51.506;11.876;2022-10-03T12:22:04;6.55;;;2.53;;
14584;SDS011;7379;51.506;11.876;2022-10-03T12:24:40;6.20;;;2.47;;
14584;SDS011;7379;51.506;11.876;2022-10-03T12:27:12;5.65;;;2.50;;
14584;SDS011;7379;51.506;11.876;2022-10-03T12:29:45;6.15;;;2.28;;
14584;SDS011;7379;51.506;11.876;2022-10-03T12:32:25;9.48;;;2.65;;
14584;SDS011;7379;51.506;11.876;2022-10-03T12:35:02;7.82;;;2.60;;
14584;SDS011;7379;51.506;11.876;2022-10-03T12:37:44;7.82;;;2.40;;
14584;SDS011;7379;51.506;11.876;2022-10-03T12:40:22;7.90;;;2.30;;
14584;SDS011;7379;51.506;11.876;2022-10-03T12:42:57;5.13;;;2.28;;
14584;SDS011;7379;51.506;11.876;2022-10-03T12:45:33;6.22;;;2.10;;
14584;SDS011;7379;51.506;11.876;2022-10-03T12:48:14;7.05;;;2.20;;
14584;SDS011;7379;51.506;11.876;2022-10-03T12:50:57;6.05;;;2.53;;
14584;SDS011;7379;51.506;11.876;2022-10-03T12:53:41;5.68;;;2.28;;
14584;SDS011;7379;51.506;11.876;2022-10-03T12:56:21;7.57;;;2.25;;
14584;SDS011;7379;51.506;11.876;2022-10-03T12:59:01;5.45;;;2.10;;
14584;SDS011;7379;51.506;11.876;2022-10-03T13:01:43;4.72;;;2.08;;
14584;SDS011;7379;51.506;11.876;2022-10-03T13:04:30;6.93;;;2.30;;
14584;SDS011;7379;51.506;11.876;2022-10-03T13:07:17;3.63;;;1.88;;
14584;SDS011;7379;51.506;11.876;2022-10-03T13:10:03;5.68;;;2.22;;
14584;SDS011;7379;51.506;11.876;2022-10-03T13:12:42;4.50;;;1.98;;
14584;SDS011;7379;51.506;11.876;2022-10-03T13:18:09;4.65;;;2.03;;
14584;SDS011;7379;51.506;11.876;2022-10-03T13:20:50;6.60;;;2.05;;
14584;SDS011;7379;51.506;11.876;2022-10-03T13:23:27;4.82;;;2.20;;
14584;SDS011;7379;51.506;11.876;2022-10-03T13:26:07;4.68;;;1.90;;
14584;SDS011;7379;51.506;11.876;2022-10-03T13:28:44;5.72;;;2.63;;
14584;SDS011;7379;51.506;11.876;2022-10-03T13:31:38;3.65;;;1.80;;
14584;SDS011;7379;51.506;11.876;2022-10-03T13:34:26;4.95;;;2.05;;
14584;SDS011;7379;51.506;11.876;2022-10-03T13:36:56;3.22;;;1.92;;
14584;SDS011;7379;51.506;11.876;2022-10-03T13:39:33;6.35;;;1.85;;
14584;SDS011;7379;51.506;11.876;2022-10-03T13:42:12;6.40;;;2.25;;
14584;SDS011;7379;51.506;11.876;2022-10-03T13:44:43;5.95;;;2.00;;
14584;SDS011;7379;51.506;11.876;2022-10-03T13:47:26;4.82;;;2.00;;
14584;SDS011;7379;51.506;11.876;2022-10-03T13:50:00;5.10;;;2.33;;
14584;SDS011;7379;51.506;11.876;2022-10-03T13:52:34;5.32;;;2.15;;
14584;SDS011;7379;51.506;11.876;2022-10-03T13:55:13;4.65;;;2.00;;
14584;SDS011;7379;51.506;11.876;2022-10-03T13:57:49;4.72;;;2.25;;
14584;SDS011;7379;51.506;11.876;2022-10-03T14:00:23;4.68;;;1.80;;
14584;SDS011;7379;51.506;11.876;2022-10-03T14:03:09;5.00;;;1.83;;
14584;SDS011;7379;51.506;11.876;2022-10-03T14:05:51;4.18;;;1.80;;
14584;SDS011;7379;51.506;11.876;2022-10-03T14:08:29;4.90;;;1.65;;
14584;SDS011;7379;51.506;11.876;2022-10-03T14:11:17;4.50;;;1.77;;
14584;SDS011;7379;51.506;11.876;2022-10-03T14:13:55;4.85;;;1.90;;
14584;SDS011;7379;51.506;11.876;2022-10-03T14:16:40;5.65;;;1.80;;
14584;SDS011;7379;51.506;11.876;2022-10-03T14:19:13;5.57;;;1.70;;
14584;SDS011;7379;51.506;11.876;2022-10-03T14:21:49;5.55;;;2.03;;
14584;SDS011;7379;51.506;11.876;2022-10-03T14:27:19;3.42;;;1.63;;
14584;SDS011;7379;51.506;11.876;2022-10-03T14:30:09;4.60;;;1.80;;
14584;SDS011;7379;51.506;11.876;2022-10-03T14:32:43;6.28;;;1.75;;
14584;SDS011;7379;51.506;11.876;2022-10-03T14:35:32;3.72;;;1.60;;
14584;SDS011;7379;51.506;11.876;2022-10-03T14:38:15;4.72;;;1.85;;
14584;SDS011;7379;51.506;11.876;2022-10-03T14:41:14;4.80;;;1.90;;
14584;SDS011;7379;51.506;11.876;2022-10-03T14:43:46;5.80;;;2.05;;
14584;SDS011;7379;51.506;11.876;2022-10-03T14:46:18;5.03;;;1.88;;
14584;SDS011;7379;51.506;11.876;2022-10-03T14:48:49;5.03;;;1.90;;
14584;SDS011;7379;51.506;11.876;2022-10-03T14:51:23;5.03;;;1.65;;
14584;SDS011;7379;51.506;11.876;2022-10-03T14:53:55;4.35;;;1.77;;
14584;SDS011;7379;51.506;11.876;2022-10-03T14:56:26;3.97;;;1.70;;
14584;SDS011;7379;51.506;11.876;2022-10-03T14:58:58;3.80;;;1.75;;
14584;SDS011;7379;51.506;11.876;2022-10-03T15:01:29;5.85;;;2.00;;
14584;SDS011;7379;51.506;11.876;2022-10-03T15:03:57;5.97;;;1.88;;
14584;SDS011;7379;51.506;11.876;2022-10-03T15:06:32;5.43;;;2.20;;
14584;SDS011;7379;51.506;11.876;2022-10-03T15:09:22;4.85;;;1.80;;
14584;SDS011;7379;51.506;11.876;2022-10-03T15:11:52;4.78;;;1.63;;
14584;SDS011;7379;51.506;11.876;2022-10-03T15:14:23;3.95;;;1.95;;
14584;SDS011;7379;51.506;11.876;2022-10-03T15:16:54;5.20;;;1.95;;
14584;SDS011;7379;51.506;11.876;2022-10-03T15:19:28;5.75;;;1.80;;
14584;SDS011;7379;51.506;11.876;2022-10-03T15:22:04;5.10;;;2.03;;
14584;SDS011;7379;51.506;11.876;2022-10-03T15:24:47;6.18;;;2.05;;
14584;SDS011;7379;51.506;11.876;2022-10-03T15:27:18;4.40;;;1.77;;
14584;SDS011;7379;51.506;11.876;2022-10-03T15:29:48;4.93;;;2.17;;
14584;SDS011;7379;51.506;11.876;2022-10-03T15:32:22;4.88;;;1.83;;
14584;SDS011;7379;51.506;11.876;2022-10-03T15:34:54;4.75;;;1.98;;
14584;SDS011;7379;51.506;11.876;2022-10-03T15:37:24;5.32;;;2.03;;
14584;SDS011;7379;51.506;11.876;2022-10-03T15:39:57;3.45;;;1.85;;
14584;SDS011;7379;51.506;11.876;2022-10-03T15:42:28;5.82;;;1.80;;
14584;SDS011;7379;51.506;11.876;2022-10-03T15:44:58;4.82;;;1.90;;
14584;SDS011;7379;51.506;11.876;2022-10-03T15:47:29;6.32;;;1.92;;
14584;SDS011;7379;51.506;11.876;2022-10-03T15:50:00;5.20;;;2.10;;
14584;SDS011;7379;51.506;11.876;2022-10-03T15:52:32;4.45;;;1.77;;
14584;SDS011;7379;51.506;11.876;2022-10-03T15:55:05;5.82;;;1.98;;
14584;SDS011;7379;51.506;11.876;2022-10-03T15:57:42;3.20;;;1.85;;
14584;SDS011;7379;51.506;11.876;2022-10-03T16:00:17;5.22;;;1.88;;
14584;SDS011;7379;51.506;11.876;2022-10-03T16:02:48;3.85;;;1.85;;
14584;SDS011;7379;51.506;11.876;2022-10-03T16:05:21;3.45;;;1.70;;
14584;SDS011;7379;51.506;11.876;2022-10-03T16:07:52;4.45;;;1.90;;
14584;SDS011;7379;51.506;11.876;2022-10-03T16:10:24;3.67;;;2.00;;
14584;SDS011;7379;51.506;11.876;2022-10-03T16:12:54;6.50;;;2.03;;
14584;SDS011;7379;51.506;11.876;2022-10-03T16:15:27;5.30;;;2.20;;
14584;SDS011;7379;51.506;11.876;2022-10-03T16:18:08;4.47;;;2.10;;
14584;SDS011;7379;51.506;11.876;2022-10-03T16:20:56;6.97;;;2.10;;
14584;SDS011;7379;51.506;11.876;2022-10-03T16:23:25;3.63;;;1.88;;
14584;SDS011;7379;51.506;11.876;2022-10-03T16:25:57;4.80;;;1.90;;
14584;SDS011;7379;51.506;11.876;2022-10-03T16:28:27;5.72;;;1.85;;
14584;SDS011;7379;51.506;11.876;2022-10-03T16:31:00;7.00;;;2.10;;
14584;SDS011;7379;51.506;11.876;2022-10-03T16:33:31;3.58;;;1.90;;
14584;SDS011;7379;51.506;11.876;2022-10-03T16:36:01;4.72;;;2.03;;
14584;SDS011;7379;51.506;11.876;2022-10-03T16:38:31;5.18;;;1.85;;
14584;SDS011;7379;51.506;11.876;2022-10-03T16:41:02;4.25;;;1.83;;
14584;SDS011;7379;51.506;11.876;2022-10-03T16:43:32;5.10;;;2.20;;
14584;SDS011;7379;51.506;11.876;2022-10-03T16:46:00;7.43;;;2.10;;
14584;SDS011;7379;51.506;11.876;2022-10-03T16:48:35;3.25;;;1.85;;
14584;SDS011;7379;51.506;11.876;2022-10-03T16:51:25;6.00;;;2.05;;
14584;SDS011;7379;51.506;11.876;2022-10-03T16:54:01;6.05;;;2.20;;
14584;SDS011;7379;51.506;11.876;2022-10-03T16:56:29;3.13;;;1.73;;
14584;SDS011;7379;51.506;11.876;2022-10-03T16:59:03;5.10;;;2.10;;
14584;SDS011;7379;51.506;11.876;2022-10-03T17:01:31;4.60;;;2.08;;
14584;SDS011;7379;51.506;11.876;2022-10-03T17:04:14;3.83;;;1.90;;
14584;SDS011;7379;51.506;11.876;2022-10-03T17:06:47;4.65;;;1.90;;
14584;SDS011;7379;51.506;11.876;2022-10-03T17:09:22;5.85;;;2.17;;
14584;SDS011;7379;51.506;11.876;2022-10-03T17:11:55;3.70;;;2.08;;
14584;SDS011;7379;51.506;11.876;2022-10-03T17:14:23;2.80;;;1.85;;
14584;SDS011;7379;51.506;11.876;2022-10-03T17:16:54;3.97;;;1.98;;
14584;SDS011;7379;51.506;11.876;2022-10-03T17:19:30;4.93;;;1.92;;
14584;SDS011;7379;51.506;11.876;2022-10-03T17:22:03;4.60;;;1.95;;
14584;SDS011;7379;51.506;11.876;2022-10-03T17:24:38;4.72;;;2.20;;
14584;SDS011;7379;51.506;11.876;2022-10-03T17:27:14;6.30;;;2.13;;
14584;SDS011;7379;51.506;11.876;2022-10-03T17:29:47;3.17;;;1.90;;
14584;SDS011;7379;51.506;11.876;2022-10-03T17:32:21;3.53;;;1.90;;
14584;SDS011;7379;51.506;11.876;2022-10-03T17:34:54;4.97;;;2.00;;
14584;SDS011;7379;51.506;11.876;2022-10-03T17:40:20;4.50;;;2.22;;
14584;SDS011;7379;51.506;11.876;2022-10-03T17:42:52;3.47;;;1.70;;
14584;SDS011;7379;51.506;11.876;2022-10-03T17:45:24;4.50;;;2.10;;
14584;SDS011;7379;51.506;11.876;2022-10-03T17:47:57;3.15;;;1.77;;
14584;SDS011;7379;51.506;11.876;2022-10-03T17:50:33;3.45;;;1.77;;
14584;SDS011;7379;51.506;11.876;2022-10-03T17:53:03;3.10;;;2.00;;
14584;SDS011;7379;51.506;11.876;2022-10-03T17:55:32;3.28;;;1.70;;
14584;SDS011;7379;51.506;11.876;2022-10-03T17:58:03;4.60;;;1.98;;
14584;SDS011;7379;51.506;11.876;2022-10-03T18:00:32;5.20;;;2.00;;
14584;SDS011;7379;51.506;11.876;2022-10-03T18:03:03;5.07;;;1.95;;
14584;SDS011;7379;51.506;11.876;2022-10-03T18:05:37;3.38;;;1.98;;
14584;SDS011;7379;51.506;11.876;2022-10-03T18:08:10;3.97;;;1.90;;
14584;SDS011;7379;51.506;11.876;2022-10-03T18:10:45;5.72;;;2.17;;
14584;SDS011;7379;51.506;11.876;2022-10-03T18:13:15;4.80;;;1.92;;
14584;SDS011;7379;51.506;11.876;2022-10-03T18:15:55;3.47;;;2.00;;
14584;SDS011;7379;51.506;11.876;2022-10-03T18:21:36;3.47;;;1.98;;
14584;SDS011;7379;51.506;11.876;2022-10-03T18:27:33;4.82;;;1.80;;
14584;SDS011;7379;51.506;11.876;2022-10-03T18:30:16;4.68;;;1.50;;
14584;SDS011;7379;51.506;11.876;2022-10-03T18:32:45;2.72;;;1.60;;
14584;SDS011;7379;51.506;11.876;2022-10-03T18:35:14;3.22;;;1.77;;
14584;SDS011;7379;51.506;11.876;2022-10-03T18:40:41;4.57;;;1.90;;
14584;SDS011;7379;51.506;11.876;2022-10-03T18:43:21;4.43;;;1.92;;
14584;SDS011;7379;51.506;11.876;2022-10-03T18:45:54;4.20;;;1.70;;
14584;SDS011;7379;51.506;11.876;2022-10-03T18:48:34;4.38;;;1.58;;
14584;SDS011;7379;51.506;11.876;2022-10-03T18:51:10;3.00;;;1.70;;
14584;SDS011;7379;51.506;11.876;2022-10-03T18:53:42;4.10;;;1.90;;
14584;SDS011;7379;51.506;11.876;2022-10-03T18:56:15;2.65;;;1.50;;
14584;SDS011;7379;51.506;11.876;2022-10-03T18:58:53;3.83;;;1.88;;
14584;SDS011;7379;51.506;11.876;2022-10-03T19:01:39;3.92;;;1.75;;
14584;SDS011;7379;51.506;11.876;2022-10-03T19:04:19;3.42;;;1.80;;
14584;SDS011;7379;51.506;11.876;2022-10-03T19:06:54;3.05;;;1.73;;
14584;SDS011;7379;51.506;11.876;2022-10-03T19:09:25;3.47;;;1.80;;
14584;SDS011;7379;51.506;11.876;2022-10-03T19:11:55;3.08;;;1.67;;